Bullish Engulfing

The Bullish Engulfing pattern is a two day bullish pattern that forms when a small black candlestick is followed by a large white candlestick that completely eclipses or "engulfs" the previous day's candlestick. This trend suggests the bulls have taken control of a security's price movement from the bears. The Bearish brother of this pattern is the Bearish Engulfing pattern

Technicals
Stock Name Action ISIN Quality Score Technical Score Stock Classification Text Default Exchange Current Price Rs Day Change % Week Change % 5Day SMA Rs 5Day EMA Rs 10Day SMA Rs Candlestick Strength [Bullish minus Bearish] Prev Close Rs Last End of Day
Saregama India Ltd. Detail Quote INE979A01017 88 77 Expensive Star NSE 4372.35 0.94 0.8 4334.81 4334.13 4301.4 2 4331.7 2021-10-22
Sundaram Finance Ltd. Detail Quote INE660A01013 53 52 Expensive Performer NSE 2519.3 1.72 2.63 2487.43 2490.23 2466.48 1 2476.65 2021-10-22
Stovec Industries Ltd. Detail Quote INE755D01015 67 49 Mid-range Performer BSE 2354.4 0.23 -0.73 2376.85 2368.32 2382.26 1 2349 2021-10-22
Astral Ltd. Detail Quote INE006I01046 86 61 Expensive Star NSE 2192.55 1.18 -6.23 2235.88 2218.62 2263.38 1 2167.05 2021-10-22
Voltamp Transformers Ltd. Detail Quote INE540H01012 69 50 Mid-range Performer NSE 1441.55 1.09 -2.48 1450.03 1448.73 1471.33 1 1426 2021-10-22
SBI Cards and Payment Services Ltd. Detail Quote INE018E01016 46 67 Expensive Rocket NSE 1129.5 3.73 -0.48 1115.23 1114.51 1119.71 1 1088.9 2021-10-22
Agro Tech Foods Ltd. Detail Quote INE209A01019 56 58 Expensive Performer NSE 1044.4 3.44 0.4 1026.68 1027.35 1026.55 1 1009.7 2021-10-22
M M Forgings Ltd. Detail Quote INE227C01017 79 76 Strong Performer, Getting Expensive NSE 898 3.81 1.43 899 888.3 880.09 1 865.05 2021-10-22
ADF Foods Ltd. Detail Quote INE982B01019 74 50 Expensive Performer NSE 879.65 1.16 -8.21 898.75 891.46 907.15 1 869.6 2021-10-22
Minda Industries Ltd. Detail Quote INE405E01023 67 61 Expensive Star NSE 764.7 1.2 -3.62 763.09 765.19 775.64 1 755.65 2021-10-22
Pacific Industries Ltd. Detail Quote INE883C01025 51 82 Turnaround Potential BSE 676.45 8.88 -10.4 650.06 647.35 627.32 2 621.3 2021-10-22
IFB Agro Industries Ltd. Detail Quote INE076C01018 69 63 Strong Performer NSE 649.2 2.97 -7.53 655.59 652.12 663.62 1 630.45 2021-10-22
KDDL Ltd. Detail Quote INE291D01011 76 69 Strong Performer, Getting Expensive NSE 484.9 4.17 -6.37 493.79 483.9 479.63 1 465.5 2021-10-22
Fredun Pharmaceuticals Ltd. Detail Quote INE194R01017 38 58 Expensive Performer BSE 484.5 3.61 0.01 479.18 480.62 487.85 1 467.6 2021-10-22
West Coast Paper Mills Ltd. Detail Quote INE976A01021 38 59 Mid-range Performer NSE 262.7 2.16 -4.73 263.38 263.32 268.18 1 257.15 2021-10-22
IRIS Clothings Ltd. Detail Quote INE01GN01017 44 68 Turnaround Potential NSE 203.15 3.1 -7.93 202.86 202.95 209.44 1 197.05 2021-10-22
SBI - ETF Nifty Detail Quote INF200KA1FS1 NA 66 NA NSE 190.09 2.38 1.92 187.61 187.43 185.75 1 185.67 2021-10-22
D-Link (India) Ltd. Detail Quote INE250K01012 67 63 Strong Performer NSE 143.35 3.39 -1.88 142.15 142.41 144.74 1 138.65 2021-10-22
Welspun Corp Ltd. Detail Quote INE191B01025 58 46 Strong Performer, Under Radar NSE 136.95 6.58 -7.28 137.83 137.05 142.12 1 128.5 2021-10-22
PBM Polytex Ltd. Detail Quote INE501F01018 61 74 Strong Performer BSE 135.3 2.23 2.62 132.52 132.99 133.08 1 132.35 2021-10-22
Smartlink Holdings Ltd. Detail Quote INE178C01020 58 70 Strong Performer NSE 121.6 2.7 6.25 118.56 118.81 116.11 1 118.4 2021-10-22
Trigyn Technologies Ltd. Detail Quote INE948A01012 86 69 Strong Performer NSE 120.35 1.86 -6.56 122.82 122.07 126.1 1 118.15 2021-10-22
Veeram Securities Ltd. Detail Quote INE607V01010 NA 69 NA BSE 120 1.74 -5.77 123.49 122.21 125.06 1 117.95 2021-10-22
CL Educate Ltd. Detail Quote INE201M01029 38 78 Expensive Rocket NSE 100.6 0.5 -0.35 104.57 101.35 97.06 1 100.1 2021-10-22
Maha Rashtra Apex Corporation Ltd. Detail Quote INE843B01013 NA 65 NA NSE 97.15 3.3 -8.61 97.8 97.22 98.06 1 94.05 2021-10-22
Dhabriya Polywood Ltd. Detail Quote INE260R01016 58 72 Strong Performer BSE 84.6 6.89 17.91 78.95 79.51 74.98 1 79.15 2021-10-22
Shish Industries Ltd. Detail Quote INE145Y01015 67 59 Expensive Performer BSE 70.5 4.06 2.84 68.89 69.03 69.09 1 67.75 2021-10-22
LT Foods Ltd. Detail Quote INE818H01020 85 52 Strong Performer, Under Radar NSE 69.8 0.29 -5.16 70.2 70.09 70.43 1 69.6 2021-10-22
HPL Electric & Power Ltd. Detail Quote INE495S01016 76 50 Strong Performer, Under Radar NSE 68.55 1.86 -3.65 68.68 68.69 69.92 1 67.3 2021-10-22
Ushanti Colour Chem Ltd. Detail Quote INE00NI01015 NA 50 NA NSE 57.25 1.78 2.78 57.97 57.09 56.26 1 56.25 2021-10-22
Gini Silk Mills Ltd. Detail Quote INE548B01018 NA 32 NA BSE 50.95 4.41 -1.92 50.91 50.69 50.94 2 48.8 2021-10-22
Nippon India ETF Gold BeES Detail Quote INF204KB17I5 NA 51 NA NSE 41.29 0.29 -0.55 41.14 41.16 41.02 1 41.17 2021-10-22
Dhampure Specialty Sugars Ltd. Detail Quote INE956B01013 NA 62 NA BSE 36.5 4.58 -2.14 35.98 36.06 36.93 2 34.9 2021-10-22
Globe Commercials Ltd. Detail Quote INE804Q01013 NA 69 NA BSE 35.3 1.88 1.73 34.26 34.65 34.89 1 34.65 2021-10-22
We Win Ltd. Detail Quote INE082W01014 NA 37 NA NSE 32.45 4.85 23.38 30.06 30.04 27.01 2 30.95 2021-10-22
Gokak Textiles Ltd. Detail Quote INE642I01014 NA 66 NA BSE 30.8 3.36 10.39 28.81 29.28 28.09 1 29.8 2021-10-22
Dr. Habeebullah Life Sciences Ltd. Detail Quote INE579N01018 NA 32 NA BSE 29.3 4.64 -1.51 28.43 28.9 29.38 2 28 2021-10-22
BLB Ltd. Detail Quote INE791A01024 94 65 Strong Performer NSE 11.15 4.69 -13.9 11.42 11.41 12.3 2 10.65 2021-10-22
Jump Networks Ltd. Detail Quote INE974C01022 NA 33 NA NSE 7.7 4.76 -3.75 7.71 7.7 7.94 3 7.35 2021-10-22
Mudunuru Ltd. Detail Quote INE491C01027 NA 51 NA BSE 7.2 3.6 5.73 6.92 6.92 6.65 2 6.95 2021-10-13
Triveni Glass Ltd. Detail Quote INE094C01011 NA 55 NA BSE 6.21 1.8 -4.46 6.18 6.22 6.31 1 6.1 2021-10-22
Jatalia Global Ventures Ltd. Detail Quote INE847M01011 NA 44 NA BSE 4.1 1.99 -0.97 4.07 4.07 4.02 1 4.02 2021-10-22
Restile Ceramics Ltd. Detail Quote INE298E01022 NA 44 NA BSE 2.97 1.71 -2.62 2.97 2.97 2.99 1 2.92 2021-10-22